FW3594 Weather Reports


Display with metric or nautical units.
time (UTC)temp
F
wind
direction
speed
MPH
gust
MPH
rain 1hr
in
rain 24hr
in
rain mn
in
humidity
%
barometer
mb
20210922124122 56 270 0.0 0.0 0.00 0.00 0.00 99 1017.2
20210922123123 56 16 1.0 4.0 0.00 0.00 0.00 99 1017.0
20210922122121 56 270 0.0 0.0 0.00 0.00 0.00 99 1017.0
20210922121122 56 247 0.0 3.0 0.00 0.00 0.00 99 1017.0
20210922120122 56 270 0.0 3.0 0.00 0.00 0.00 99 1016.7
20210922115122 56 248 0.0 0.0 0.00 0.00 0.00 99 1016.8
20210922114122 55 248 0.0 0.0 0.00 0.00 0.00 99 1016.6
20210922113122 55 180 0.0 0.0 0.00 0.00 0.00 99 1016.6
20210922112122 55 225 0.0 0.0 0.00 0.00 0.00 99 1016.3
20210922111122 55 293 0.0 0.0 0.00 0.00 0.00 99 1016.3
20210922110122 56 293 0.0 0.0 0.00 0.00 0.00 99 1016.3
20210922105122 56 315 0.0 0.0 0.00 0.00 0.00 99 1016.3
20210922104122 55 315 0.0 0.0 0.00 0.00 0.00 99 1016.1
20210922103123 55 338 0.0 0.0 0.00 0.00 0.00 99 1016.0
20210922102122 56 90 0.0 0.0 0.00 0.00 0.00 99 1016.1
20210922101122 55 360 0.0 0.0 0.00 0.00 0.00 98 1016.1
20210922100122 55 360 0.0 0.0 0.00 0.00 0.00 98 1016.3
20210922095122 55 270 0.0 0.0 0.00 0.00 0.00 98 1016.1
20210922094122 55 80 1.0 4.0 0.00 0.00 0.00 98 1016.2
20210922093122 55 248 0.0 0.0 0.00 0.00 0.00 97 1016.0
20210922092122 56 315 0.0 0.0 0.00 0.00 0.00 97 1015.8
20210922091122 56 158 0.0 0.0 0.00 0.00 0.00 97 1015.8
20210922090122 56 68 0.0 0.0 0.00 0.00 0.00 96 1016.2
20210922085122 56 360 0.0 0.0 0.00 0.00 0.00 96 1016.1
20210922084122 56 90 0.0 0.0 0.00 0.00 0.00 96 1016.2
20210922083122 56 293 0.0 0.0 0.00 0.00 0.00 95 1016.3
20210922082122 57 248 0.0 0.0 0.00 0.00 0.00 94 1016.3
20210922081122 57 248 0.0 0.0 0.00 0.00 0.00 93 1016.3
20210922080122 57 248 0.0 0.0 0.00 0.00 0.00 92 1016.3
20210922075122 58 248 0.0 0.0 0.00 0.00 0.00 92 1016.0
20210922074122 58 248 0.0 0.0 0.00 0.00 0.00 93 1015.7
20210922073122 58 23 0.0 0.0 0.00 0.00 0.00 93 1015.8
20210922072121 57 52 0.0 6.0 0.00 0.00 0.00 93 1015.8
20210922071121 57 360 0.0 0.0 0.00 0.00 0.00 94 1015.8
20210922070122 57 68 0.0 2.0 0.00 0.00 0.00 96 1015.6
20210922065122 56 23 0.0 0.0 0.00 0.00 0.00 96 1015.7
20210922064122 56 23 0.0 0.0 0.00 0.00 0.00 96 1015.8
20210922063122 56 360 0.0 0.0 0.00 0.00 0.00 94 1015.8
20210922062122 56 225 0.0 0.0 0.00 0.00 0.00 93 1016.0
20210922061122 56 360 0.0 0.0 0.00 0.00 0.00 92 1016.0
20210922060122 56 23 0.0 0.0 0.00 0.00 0.00 92 1016.1
20210922055122 57 45 0.0 0.0 0.00 0.00 0.00 91 1016.2
20210922054122 57 293 0.0 0.0 0.00 0.00 0.00 90 1016.2
20210922053122 57 315 0.0 0.0 0.00 0.00 0.00 90 1016.2
20210922052122 57 23 0.0 0.0 0.00 0.00 0.00 90 1016.2
20210922051122 56 360 0.0 0.0 0.00 0.00 0.00 91 1016.2
20210922050123 56 23 0.0 0.0 0.00 0.00 0.00 93 1016.1
20210922045121 56 90 0.0 0.0 0.00 0.00 0.00 92 1016.2
20210922044122 56 338 0.0 0.0 0.00 0.00 0.00 92 1016.3
20210922043122 56 360 0.0 0.0 0.00 0.00 0.00 92 1016.3
20210922042122 57 293 0.0 0.0 0.00 0.00 0.00 91 1016.3
20210922041122 57 338 0.0 0.0 0.00 0.00 0.00 91 1016.3
20210922040122 57 45 0.0 0.0 0.00 0.00 0.00 91 1016.3
20210922035122 57 90 0.0 0.0 0.00 0.00 0.00 89 1016.5
20210922034122 58 270 0.0 0.0 0.00 0.00 0.00 88 1016.3
20210922033122 58 360 0.0 0.0 0.00 0.00 0.00 87 1016.5
20210922032122 59 248 0.0 0.0 0.00 0.00 0.00 85 1016.3
20210922031122 59 248 0.0 0.0 0.00 0.00 0.00 83 1016.3
20210922030122 60 23 0.0 0.0 0.00 0.00 0.00 83 1016.3
20210922025122 60 158 0.0 0.0 0.00 0.00 0.00 81 1016.3
20210922024122 61 158 0.0 0.0 0.00 0.00 0.00 81 1016.3
20210922023122 61 303 1.0 7.0 0.00 0.00 0.00 79 1016.5
20210922022123 61 270 0.0 0.0 0.00 0.00 0.00 80 1016.5
20210922021122 62 248 0.0 0.0 0.00 0.00 0.00 80 1016.5
20210922020122 63 203 0.0 0.0 0.00 0.00 0.00 80 1016.6
20210922015122 64 203 0.0 0.0 0.00 0.00 0.00 80 1016.6
20210922014122 64 248 0.0 0.0 0.00 0.00 0.00 79 1016.6
20210922013122 65 270 0.0 0.0 0.00 0.00 0.00 77 1016.6
20210922012122 66 248 0.0 0.0 0.00 0.00 0.00 75 1016.7
20210922011122 66 225 0.0 0.0 0.00 0.00 0.00 75 1016.7
20210922010122 66 225 0.0 0.0 0.00 0.00 0.00 75 1016.8
20210922005122 68 225 0.0 0.0 0.00 0.00 0.00 73 1017.0
20210922004122 69 248 0.0 0.0 0.00 0.00 0.00 71 1017.0
20210922003122 71 270 0.0 0.0 0.00 0.00 0.00 68 1017.3
20210922002123 74 225 0.0 0.0 0.00 0.00 0.00 64 1017.3
20210922001122 76 248 0.0 0.0 0.00 0.00 0.00 62 1017.3
20210922000123 74 230 2.0 4.0 0.00 0.00 0.00 64 1017.6
20210921235123 73 243 0.0 4.0 0.00 0.00 0.00 65 1017.8
20210921234122 74 221 2.0 6.0 0.00 0.00 0.00 64 1018.0
20210921233122 72 198 3.0 8.0 0.00 0.00 0.00 67 1018.0
20210921232122 71 212 3.0 7.0 0.00 0.00 0.00 67 1018.2
20210921231122 75 230 3.0 8.0 0.00 0.00 0.00 64 1018.2
20210921230124 75 235 3.0 7.0 0.00 0.00 0.00 63 1018.3
20210921225121 73 230 3.0 7.0 0.00 0.00 0.00 66 1018.5
20210921224122 72 232 2.0 7.0 0.00 0.00 0.00 66 1018.6
20210921223124 73 225 3.0 8.0 0.00 0.00 0.00 65 1018.8
20210921222122 71 209 3.0 7.0 0.00 0.00 0.00 68 1018.8
20210921221122 70 219 1.0 6.0 0.00 0.00 0.00 70 1018.8
20210921220124 66 199 2.0 7.0 0.00 0.00 0.00 75 1019.1
20210921215122 67 238 2.0 7.0 0.00 0.00 0.00 74 1019.3
20210921214122 68 241 3.0 8.0 0.00 0.00 0.00 72 1019.6
20210921213124 68 228 3.0 8.0 0.00 0.00 0.00 72 1019.8
20210921212122 66 207 4.0 10.0 0.00 0.00 0.00 73 1020.1
20210921211121 65 234 4.0 9.0 0.00 0.00 0.00 75 1020.1
20210921210124 66 237 4.0 9.0 0.00 0.00 0.00 74 1020.3
20210921205121 67 223 3.0 9.0 0.00 0.00 0.00 71 1020.5
20210921204122 67 227 4.0 8.0 0.00 0.00 0.00 72 1020.7
20210921203124 66 215 4.0 9.0 0.00 0.00 0.00 73 1020.8
20210921202122 64 202 4.0 9.0 0.00 0.00 0.00 76 1021.1
20210921201121 64 217 4.0 10.0 0.00 0.00 0.00 76 1021.1
20210921200124 64 218 2.0 8.0 0.00 0.00 0.00 76 1021.3
20210921195122 66 232 4.0 12.0 0.00 0.00 0.00 74 1021.3
20210921194121 67 201 4.0 10.0 0.00 0.00 0.00 72 1021.5
20210921193125 67 229 3.0 9.0 0.00 0.00 0.00 71 1021.7
20210921192122 69 246 3.0 7.0 0.00 0.00 0.00 69 1022.0
20210921191121 66 192 3.0 8.0 0.00 0.00 0.00 74 1022.0
20210921190124 65 234 3.0 8.0 0.00 0.00 0.00 75 1022.2
20210921185122 65 215 3.0 9.0 0.00 0.00 0.00 75 1022.3
20210921184123 64 215 3.0 8.0 0.00 0.00 0.00 76 1022.6
20210921183125 63 207 3.0 9.0 0.00 0.00 0.00 76 1022.8
20210921182122 62 195 3.0 8.0 0.00 0.00 0.00 78 1022.8
20210921181122 61 184 3.0 8.0 0.00 0.00 0.00 79 1022.8
20210921180123 61 217 1.0 5.0 0.00 0.00 0.00 80 1022.8
20210921175126 59 172 1.0 8.0 0.00 0.00 0.00 83 1023.2
20210921174122 58 181 3.0 8.0 0.00 0.00 0.00 84 1023.2
20210921173122 58 196 2.0 8.0 0.00 0.00 0.00 85 1023.5
20210921172125 57 211 3.0 7.0 0.00 0.00 0.00 85 1023.7
20210921171122 57 203 3.0 8.0 0.00 0.00 0.00 85 1023.7
20210921170122 57 188 1.0 9.0 0.00 0.00 0.00 85 1023.8
20210921165125 56 217 2.0 6.0 0.00 0.00 0.00 88 1023.8
20210921164123 55 214 2.0 6.0 0.00 0.00 0.00 89 1023.8
20210921163122 54 229 2.0 6.0 0.00 0.00 0.00 92 1024.0
20210921162125 54 189 1.0 5.0 0.00 0.00 0.00 91 1024.1
20210921161122 53 218 2.0 6.0 0.00 0.00 0.00 94 1024.1
20210921160121 53 208 1.0 6.0 0.00 0.00 0.00 94 1024.1
20210921155125 51 203 0.0 0.0 0.00 0.00 0.00 99 1024.1
20210921154122 51 225 0.0 0.0 0.00 0.00 0.00 99 1024.2
20210921153122 50 203 0.0 0.0 0.00 0.00 0.00 99 1024.1
20210921152125 49 225 0.0 0.0 0.00 0.00 0.00 99 1024.3
20210921151122 49 360 0.0 0.0 0.00 0.00 0.00 99 1024.3
20210921150123 48 338 0.0 0.0 0.00 0.00 0.00 99 1024.2
20210921145125 48 338 0.0 0.0 0.00 0.00 0.00 99 1024.3
20210921144122 48 270 0.0 0.0 0.00 0.00 0.00 99 1024.3
20210921143122 48 360 0.0 0.0 0.00 0.00 0.00 99 1024.5
20210921142126 47 23 0.0 0.0 0.00 0.00 0.00 99 1024.5
20210921141122 48 23 0.0 0.0 0.00 0.00 0.00 99 1024.5
20210921140122 48 23 0.0 0.0 0.00 0.00 0.00 99 1024.5
20210921135121 48 360 0.0 0.0 0.00 0.00 0.00 99 1024.5
20210921134122 48 23 0.0 0.0 0.00 0.00 0.00 99 1024.5
20210921133122 48 360 0.0 0.0 0.00 0.00 0.00 99 1024.6
20210921132124 48 14 0.0 3.0 0.00 0.00 0.00 99 1024.6
20210921131122 48 18 1.0 5.0 0.00 0.00 0.00 99 1024.6
20210921130122 48 14 1.0 3.0 0.00 0.00 0.00 99 1024.8
20210921125124 48 23 0.0 0.0 0.00 0.00 0.00 99 1024.8